createdAt,value
2018-07-24T00:00:57.218Z,21.83
2018-07-24T00:03:27.617Z,21.84
2018-07-24T00:05:57.976Z,21.95
2018-07-24T00:08:28.334Z,21.85
2018-07-24T00:10:58.734Z,21.91
2018-07-24T00:13:29.114Z,21.87
2018-07-24T00:15:59.612Z,21.84
2018-07-24T00:18:29.976Z,21.90
2018-07-24T00:21:00.343Z,21.90
2018-07-24T00:23:30.684Z,21.92
2018-07-24T00:26:01.046Z,21.85
2018-07-24T00:28:31.224Z,21.87
2018-07-24T00:31:01.614Z,21.84
2018-07-24T00:33:32.080Z,21.75
2018-07-24T00:36:02.394Z,21.75
2018-07-24T00:38:32.955Z,21.72
2018-07-24T00:41:03.254Z,21.57
2018-07-24T00:43:33.762Z,21.83
2018-07-24T00:46:04.295Z,21.75
2018-07-24T00:48:34.668Z,21.75
2018-07-24T00:51:05.182Z,21.73
2018-07-24T00:53:35.703Z,21.78
2018-07-24T00:56:06.456Z,21.75
2018-07-24T00:58:37.023Z,21.74
2018-07-24T01:01:07.464Z,21.72
2018-07-24T01:03:37.848Z,21.70
2018-07-24T01:06:08.173Z,21.63
2018-07-24T01:08:39.097Z,21.67
2018-07-24T01:11:09.863Z,21.62
2018-07-24T01:13:40.377Z,21.68
2018-07-24T01:16:11.081Z,21.77
2018-07-24T01:18:41.797Z,21.72
2018-07-24T01:21:12.283Z,21.77
2018-07-24T01:23:42.838Z,21.79
2018-07-24T01:26:13.327Z,21.73
2018-07-24T01:28:43.700Z,21.73
2018-07-24T01:31:14.066Z,21.72
2018-07-24T01:33:44.701Z,21.74
2018-07-24T01:36:15.210Z,21.70
2018-07-24T01:38:45.548Z,21.68
2018-07-24T01:41:16.033Z,21.70
2018-07-24T01:43:46.362Z,21.65
2018-07-24T01:46:16.876Z,21.70
2018-07-24T01:48:47.430Z,21.67
2018-07-24T01:51:17.841Z,21.64
2018-07-24T01:53:48.380Z,21.67
2018-07-24T01:56:18.879Z,21.63
2018-07-24T01:58:49.202Z,21.62
2018-07-24T02:01:19.644Z,21.54
2018-07-24T02:06:47.374Z,21.54
2018-07-24T02:09:18.410Z,21.52
2018-07-24T02:11:48.759Z,21.49
2018-07-24T02:14:19.143Z,21.52
2018-07-24T02:16:49.767Z,21.52
2018-07-24T02:19:20.328Z,21.53
2018-07-24T02:21:50.902Z,21.53
2018-07-24T02:24:21.577Z,21.46
2018-07-24T02:26:52.371Z,21.49
2018-07-24T02:29:22.910Z,21.47
2018-07-24T02:31:53.335Z,21.48
2018-07-24T02:34:23.686Z,21.54
2018-07-24T02:36:54.132Z,21.44
2018-07-24T02:39:24.564Z,21.47
2018-07-24T02:41:55.228Z,21.51
2018-07-24T02:44:25.601Z,21.58
2018-07-24T02:46:56.094Z,21.64
2018-07-24T02:49:26.758Z,21.54
2018-07-24T02:51:57.188Z,21.65
2018-07-24T02:54:27.631Z,21.65
2018-07-24T02:56:58.141Z,21.65
2018-07-24T02:59:28.712Z,21.70
2018-07-24T03:01:59.099Z,21.67
2018-07-24T03:04:29.374Z,21.67
2018-07-24T03:06:59.818Z,21.67
2018-07-24T03:09:30.581Z,21.71
2018-07-24T03:12:01.001Z,21.72
2018-07-24T03:14:31.593Z,21.77
2018-07-24T03:17:02.265Z,21.75
2018-07-24T03:19:32.604Z,21.77
2018-07-24T03:22:02.963Z,21.78
2018-07-24T03:24:33.298Z,21.76
2018-07-24T03:27:03.927Z,21.79
2018-07-24T03:29:34.819Z,21.85
2018-07-24T03:32:05.151Z,21.82
2018-07-24T03:34:35.489Z,21.84
2018-07-24T03:37:06.061Z,21.81
2018-07-24T03:39:36.361Z,21.86
2018-07-24T03:42:07.111Z,21.84
2018-07-24T03:44:37.469Z,21.90
2018-07-24T03:47:07.871Z,21.89
2018-07-24T03:49:38.501Z,21.87
2018-07-24T03:52:08.836Z,21.92
2018-07-24T03:54:39.319Z,21.99
2018-07-24T03:57:10.254Z,21.96
2018-07-24T03:59:40.816Z,21.98
2018-07-24T04:02:11.512Z,21.98
2018-07-24T04:04:42.117Z,22.04
2018-07-24T04:07:12.434Z,22.05
2018-07-24T04:09:42.929Z,22.09
2018-07-24T04:12:13.723Z,22.08
2018-07-24T04:14:44.162Z,22.05
2018-07-24T04:17:14.530Z,22.04
2018-07-24T04:19:44.918Z,22.05
2018-07-24T04:22:15.582Z,22.05
2018-07-24T04:24:46.709Z,22.15
2018-07-24T04:27:17.113Z,22.18
2018-07-24T04:29:47.442Z,22.29
2018-07-24T04:32:17.835Z,22.26
2018-07-24T04:34:48.158Z,22.25
2018-07-24T04:37:18.767Z,22.25
2018-07-24T04:39:49.279Z,22.27
2018-07-24T04:42:19.803Z,22.32
2018-07-24T04:44:50.241Z,22.33
2018-07-24T04:47:20.820Z,22.42
2018-07-24T04:49:51.228Z,22.39
2018-07-24T04:52:21.555Z,22.47
2018-07-24T04:54:52.160Z,22.59
2018-07-24T04:57:22.678Z,22.73
2018-07-24T04:59:53.157Z,22.74
2018-07-24T05:02:23.728Z,22.72
2018-07-24T05:04:54.109Z,22.79
2018-07-24T05:07:24.977Z,22.84
2018-07-24T05:09:55.228Z,22.72
2018-07-24T05:12:25.633Z,22.66
2018-07-24T05:14:56.243Z,22.83
2018-07-24T05:17:26.711Z,22.85
2018-07-24T05:19:57.274Z,22.85
2018-07-24T05:22:27.701Z,23.04
2018-07-24T05:24:58.255Z,23.03
2018-07-24T05:27:28.664Z,23.06
2018-07-24T05:29:59.040Z,23.07
2018-07-24T05:32:29.585Z,23.02
2018-07-24T05:34:59.950Z,23.01
2018-07-24T05:37:30.386Z,22.99
2018-07-24T05:40:00.894Z,22.99
2018-07-24T05:42:31.212Z,22.92
2018-07-24T05:45:01.675Z,23.02
2018-07-24T05:47:31.941Z,22.98
2018-07-24T05:50:02.326Z,23.11
2018-07-24T05:52:32.915Z,23.16
2018-07-24T05:55:03.243Z,23.28
2018-07-24T05:57:33.622Z,23.45
2018-07-24T06:00:04.192Z,23.60
2018-07-24T06:02:34.801Z,23.68
2018-07-24T06:05:05.651Z,23.85
2018-07-24T06:07:36.276Z,24.36
2018-07-24T06:10:06.622Z,26.01
2018-07-24T06:12:37.090Z,26.06
2018-07-24T06:15:08.813Z,25.22
2018-07-24T06:17:39.221Z,24.95
2018-07-24T06:20:10.883Z,24.68
2018-07-24T06:22:41.503Z,24.36
2018-07-24T06:25:11.880Z,24.20
2018-07-24T06:27:42.509Z,24.12
2018-07-24T06:30:13.227Z,24.07
2018-07-24T06:32:43.579Z,23.99
2018-07-24T06:35:14.042Z,24.03
2018-07-24T06:37:44.519Z,23.86
2018-07-24T06:40:15.237Z,23.89
2018-07-24T06:42:45.612Z,23.79
2018-07-24T06:45:15.996Z,23.86
2018-07-24T06:47:46.424Z,24.13
2018-07-24T06:50:16.829Z,24.27
2018-07-24T06:52:47.328Z,24.36
2018-07-24T06:55:17.797Z,24.29
2018-07-24T06:57:48.380Z,24.21
2018-07-24T07:00:18.733Z,24.32
2018-07-24T07:02:49.032Z,24.47
2018-07-24T07:05:19.496Z,24.39
2018-07-24T07:07:49.949Z,24.19
2018-07-24T07:10:20.360Z,24.45
2018-07-24T07:12:50.642Z,24.72
2018-07-24T07:15:20.986Z,24.90
2018-07-24T07:17:51.281Z,25.09
2018-07-24T07:20:21.897Z,25.82
2018-07-24T07:22:52.188Z,26.46
2018-07-24T07:25:22.910Z,27.55
2018-07-24T07:27:53.622Z,29.28
2018-07-24T07:30:23.996Z,30.65
2018-07-24T07:32:54.358Z,31.70
2018-07-24T07:35:24.851Z,30.92
2018-07-24T07:37:55.408Z,30.84
2018-07-24T07:40:25.758Z,30.67
2018-07-24T07:42:56.262Z,29.35
2018-07-24T07:45:26.832Z,29.47
2018-07-24T07:47:57.183Z,30.74
2018-07-24T07:50:28.714Z,30.44
2018-07-24T07:52:59.162Z,30.63
2018-07-24T07:55:29.986Z,30.69
2018-07-24T07:58:00.567Z,30.72
2018-07-24T08:00:30.964Z,30.36
2018-07-24T08:03:01.302Z,29.75
2018-07-24T08:05:31.641Z,29.90
2018-07-24T08:08:02.054Z,29.66
2018-07-24T08:10:32.602Z,29.12
2018-07-24T08:13:02.962Z,29.04
2018-07-24T08:15:33.540Z,28.54
2018-07-24T08:18:04.068Z,28.71
2018-07-24T08:20:34.446Z,28.60
2018-07-24T08:23:05.384Z,28.13
2018-07-24T08:25:35.724Z,28.23
2018-07-24T08:28:07.311Z,28.18
2018-07-24T08:30:38.014Z,28.76
2018-07-24T08:33:08.580Z,29.17
2018-07-24T08:35:39.219Z,28.97
2018-07-24T08:38:10.060Z,28.33
2018-07-24T08:40:41.589Z,28.05
2018-07-24T08:43:12.487Z,27.84
2018-07-24T08:45:43.187Z,27.63
2018-07-24T08:48:13.862Z,27.97
2018-07-24T08:50:44.507Z,27.77
2018-07-24T08:53:15.524Z,27.66
2018-07-24T08:55:46.566Z,27.61
2018-07-24T08:58:16.983Z,27.56
2018-07-24T09:00:47.512Z,27.48
2018-07-24T09:03:18.254Z,27.42
2018-07-24T09:05:48.565Z,27.27
2018-07-24T09:08:18.962Z,27.17
2018-07-24T09:10:49.498Z,26.58
2018-07-24T09:13:19.869Z,27.41
2018-07-24T09:15:51.186Z,28.56
2018-07-24T09:18:21.400Z,28.92
2018-07-24T09:20:51.680Z,29.06
2018-07-24T09:23:22.011Z,29.13
2018-07-24T09:25:52.417Z,29.06
2018-07-24T09:28:22.977Z,29.24
2018-07-24T09:30:53.545Z,30.18
2018-07-24T09:33:24.965Z,29.80
2018-07-24T09:35:55.278Z,29.46
2018-07-24T09:38:25.741Z,28.65
2018-07-24T09:40:56.109Z,28.34
2018-07-24T09:43:26.510Z,28.06
2018-07-24T09:45:56.920Z,28.15
2018-07-24T09:48:27.244Z,29.05
2018-07-24T09:50:57.540Z,29.46
2018-07-24T09:53:28.074Z,29.57
2018-07-24T09:55:58.221Z,29.36
2018-07-24T09:58:28.593Z,29.04
2018-07-24T10:01:04.113Z,29.08
2018-07-24T10:03:34.335Z,28.88
2018-07-24T10:06:04.790Z,29.02
2018-07-24T10:08:35.090Z,29.15
2018-07-24T10:11:05.611Z,29.11
2018-07-24T10:13:35.845Z,28.94
2018-07-24T10:16:06.505Z,29.52
2018-07-24T10:18:36.892Z,29.52
2018-07-24T10:21:07.570Z,30.06
2018-07-24T10:23:37.955Z,30.11
2018-07-24T10:26:08.865Z,30.07
2018-07-24T10:28:39.205Z,30.74
2018-07-24T10:31:09.632Z,30.96
2018-07-24T10:33:39.918Z,30.66
2018-07-24T10:36:10.528Z,30.99
2018-07-24T10:38:40.858Z,31.23
2018-07-24T10:41:11.694Z,31.53
2018-07-24T10:43:42.234Z,31.94
2018-07-24T10:46:12.709Z,30.98
2018-07-24T10:48:43.037Z,30.30
2018-07-24T10:51:13.346Z,30.15
2018-07-24T10:53:43.637Z,30.04
2018-07-24T10:56:13.946Z,30.08
2018-07-24T10:58:44.298Z,29.99
2018-07-24T11:01:14.638Z,31.28
2018-07-24T11:03:45.088Z,31.81
2018-07-24T11:06:15.329Z,31.52
2018-07-24T11:08:46.385Z,30.88
2018-07-24T11:11:16.655Z,30.34
2018-07-24T11:13:47.162Z,30.26
2018-07-24T11:16:17.807Z,30.17
2018-07-24T11:18:48.439Z,30.24
2018-07-24T11:21:18.606Z,30.18
2018-07-24T11:23:48.969Z,30.12
2018-07-24T11:26:19.438Z,30.21
2018-07-24T11:28:50.051Z,31.16
2018-07-24T11:31:20.552Z,32.56
2018-07-24T11:33:50.908Z,32.96
2018-07-24T11:36:22.337Z,32.56
2018-07-24T11:38:52.925Z,32.19
2018-07-24T11:41:23.238Z,31.43
2018-07-24T11:43:53.673Z,30.56
2018-07-24T11:46:24.110Z,30.37
2018-07-24T11:48:54.606Z,29.97
2018-07-24T11:51:25.282Z,29.68
2018-07-24T11:53:55.716Z,29.59
2018-07-24T11:56:26.107Z,30.06
2018-07-24T11:58:56.405Z,30.42
2018-07-24T12:01:26.859Z,31.02
2018-07-24T12:03:58.028Z,31.22
2018-07-24T12:06:28.362Z,30.73
2018-07-24T12:08:58.722Z,30.23
2018-07-24T12:11:29.108Z,29.88
2018-07-24T12:13:59.549Z,29.39
2018-07-24T12:16:30.080Z,28.76
2018-07-24T12:19:00.523Z,28.44
2018-07-24T12:21:30.832Z,28.11
2018-07-24T12:24:01.424Z,27.36
2018-07-24T12:26:31.883Z,27.92
2018-07-24T12:29:02.331Z,28.07
2018-07-24T12:31:32.435Z,28.52
2018-07-24T12:34:02.970Z,28.95
2018-07-24T12:36:33.618Z,29.06
2018-07-24T12:39:04.808Z,28.97
2018-07-24T12:41:36.228Z,29.07
2018-07-24T12:44:06.514Z,29.14
2018-07-24T12:46:37.228Z,29.43
2018-07-24T12:49:07.539Z,29.49
2018-07-24T12:51:38.174Z,29.21
2018-07-24T12:54:08.507Z,29.24
2018-07-24T12:56:39.087Z,28.91
2018-07-24T12:59:09.506Z,28.33
2018-07-24T13:01:39.909Z,28.14
2018-07-24T13:04:10.541Z,27.83
2018-07-24T13:06:41.076Z,27.60
2018-07-24T13:09:12.308Z,27.77
2018-07-24T13:11:42.822Z,28.10
2018-07-24T13:14:13.355Z,28.60
2018-07-24T13:16:44.329Z,28.92
2018-07-24T13:19:14.743Z,28.70
2018-07-24T13:21:45.352Z,28.46
2018-07-24T13:24:15.705Z,28.50
2018-07-24T13:26:46.070Z,28.56
2018-07-24T13:29:16.416Z,28.29
2018-07-24T13:31:47.020Z,28.73
2018-07-24T13:34:17.416Z,29.02
2018-07-24T13:36:47.783Z,29.23
2018-07-24T13:39:18.322Z,28.82
2018-07-24T13:41:48.773Z,28.65
2018-07-24T13:44:19.012Z,28.35
2018-07-24T13:46:49.790Z,28.66
2018-07-24T13:49:20.444Z,28.85
2018-07-24T13:51:50.761Z,28.81
2018-07-24T13:54:21.066Z,28.58
2018-07-24T13:56:51.476Z,28.63
2018-07-24T13:59:22.013Z,28.50
2018-07-24T14:01:52.772Z,28.29
2018-07-24T14:04:23.326Z,28.23
2018-07-24T14:06:54.345Z,28.30
2018-07-24T14:09:24.783Z,28.08
2018-07-24T14:11:55.274Z,27.88
2018-07-24T14:14:25.667Z,27.96
2018-07-24T14:16:55.983Z,27.73
2018-07-24T14:19:26.393Z,27.82
2018-07-24T14:21:56.747Z,27.73
2018-07-24T14:24:27.448Z,27.62
2018-07-24T14:26:57.885Z,27.53
2018-07-24T14:29:28.176Z,27.46
2018-07-24T14:31:58.901Z,27.56
2018-07-24T14:34:29.245Z,27.64
2018-07-24T14:36:59.939Z,27.81
2018-07-24T14:39:30.595Z,27.84
2018-07-24T14:42:00.946Z,27.92
2018-07-24T14:44:31.355Z,27.92
2018-07-24T14:47:01.992Z,27.94
2018-07-24T14:49:32.346Z,28.00
2018-07-24T14:52:02.798Z,28.34
2018-07-24T14:54:33.183Z,28.39
2018-07-24T14:57:03.730Z,28.39
2018-07-24T14:59:34.267Z,28.43
2018-07-24T15:02:04.737Z,28.49
2018-07-24T15:04:35.085Z,28.73
2018-07-24T15:07:05.590Z,28.86
2018-07-24T15:09:36.393Z,28.85
2018-07-24T15:12:06.759Z,28.51
2018-07-24T15:14:37.299Z,28.09
2018-07-24T15:17:08.446Z,27.97
2018-07-24T15:19:39.017Z,27.61
2018-07-24T15:22:09.692Z,27.64
2018-07-24T15:24:40.120Z,27.86
2018-07-24T15:27:10.601Z,27.86
2018-07-24T15:29:40.934Z,27.99
2018-07-24T15:32:11.622Z,27.92
2018-07-24T15:34:42.352Z,27.87
2018-07-24T15:37:13.303Z,27.68
2018-07-24T15:39:43.915Z,27.78
2018-07-24T15:42:14.554Z,27.68
2018-07-24T15:44:45.125Z,27.67
2018-07-24T15:47:15.613Z,27.76
2018-07-24T15:49:46.377Z,27.71
2018-07-24T15:52:16.780Z,27.83
2018-07-24T15:54:47.250Z,27.62
2018-07-24T15:57:17.702Z,27.59
2018-07-24T15:59:48.111Z,27.19
2018-07-24T16:02:18.439Z,27.04
2018-07-24T16:04:48.997Z,26.89
2018-07-24T16:07:19.338Z,26.66
2018-07-24T16:09:49.717Z,26.57
2018-07-24T16:12:20.087Z,26.47
2018-07-24T16:14:50.496Z,26.41
2018-07-24T16:17:21.805Z,26.31
2018-07-24T16:19:52.187Z,26.30
2018-07-24T16:22:22.638Z,26.48
2018-07-24T16:24:53.080Z,26.45
2018-07-24T16:27:23.568Z,26.54
2018-07-24T16:29:53.829Z,26.34
2018-07-24T16:32:24.495Z,26.38
2018-07-24T16:34:54.871Z,26.29
2018-07-24T16:37:25.331Z,26.22
2018-07-24T16:39:55.965Z,26.21
2018-07-24T16:42:26.513Z,26.07
2018-07-24T16:44:56.865Z,26.02
2018-07-24T16:47:27.718Z,25.96
2018-07-24T16:49:58.063Z,25.83
2018-07-24T16:52:28.383Z,25.21
2018-07-24T16:54:58.970Z,25.68
2018-07-24T16:57:29.361Z,25.65
2018-07-24T16:59:59.808Z,25.59
2018-07-24T17:02:30.562Z,25.56
2018-07-24T17:05:00.923Z,25.50
2018-07-24T17:07:31.483Z,25.43
2018-07-24T17:10:02.719Z,25.41
2018-07-24T17:12:33.329Z,25.34
2018-07-24T17:15:03.872Z,25.29
2018-07-24T17:17:35.568Z,25.18
2018-07-24T17:20:06.443Z,25.17
2018-07-24T17:22:37.285Z,25.22
2018-07-24T17:25:07.954Z,25.12
2018-07-24T17:27:38.346Z,24.97
2018-07-24T17:30:08.771Z,24.80
2018-07-24T17:32:39.338Z,24.86
2018-07-24T17:35:09.927Z,24.82
2018-07-24T17:37:40.867Z,24.78
2018-07-24T17:40:12.013Z,24.67
2018-07-24T17:42:43.212Z,24.70
2018-07-24T17:45:13.707Z,24.65
2018-07-24T17:47:44.299Z,24.65
2018-07-24T17:50:14.826Z,24.66
2018-07-24T17:52:45.411Z,24.60
2018-07-24T17:55:15.780Z,24.63
2018-07-24T17:57:46.208Z,24.65
2018-07-24T18:00:16.810Z,24.62
2018-07-24T18:02:47.985Z,24.66
2018-07-24T18:05:18.339Z,24.71
2018-07-24T18:07:48.930Z,24.74
2018-07-24T18:10:19.437Z,24.75
2018-07-24T18:12:50.040Z,24.73
2018-07-24T18:15:20.856Z,24.74
2018-07-24T18:17:51.442Z,24.72
2018-07-24T18:20:21.940Z,24.69
2018-07-24T18:22:52.325Z,24.70
2018-07-24T18:25:22.809Z,24.74
2018-07-24T18:27:53.289Z,24.66
2018-07-24T18:30:23.726Z,24.62
2018-07-24T18:32:54.077Z,24.64
2018-07-24T18:35:24.550Z,24.62
2018-07-24T18:37:55.171Z,24.71
2018-07-24T18:40:25.632Z,24.65
2018-07-24T18:42:56.036Z,24.78
2018-07-24T18:45:26.525Z,24.77
2018-07-24T18:47:56.906Z,24.75
2018-07-24T18:50:27.210Z,24.69
2018-07-24T18:52:57.517Z,24.64
2018-07-24T18:55:27.854Z,24.68
2018-07-24T18:57:58.177Z,24.66
2018-07-24T19:00:28.692Z,24.62
2018-07-24T19:02:59.176Z,24.59
2018-07-24T19:05:29.759Z,24.53
2018-07-24T19:08:00.218Z,24.64
2018-07-24T19:10:31.516Z,24.52
2018-07-24T19:13:02.199Z,24.33
2018-07-24T19:15:32.668Z,23.95
2018-07-24T19:18:03.843Z,23.71
2018-07-24T19:20:34.452Z,23.54
2018-07-24T19:23:05.012Z,23.14
2018-07-24T19:25:36.547Z,22.66
2018-07-24T19:28:06.866Z,22.29
2018-07-24T19:30:37.497Z,21.88
2018-07-24T19:33:07.815Z,21.59
2018-07-24T19:35:38.415Z,21.21
2018-07-24T19:38:08.958Z,20.98
2018-07-24T19:40:39.387Z,20.91
2018-07-24T19:43:10.029Z,20.82
2018-07-24T19:45:40.670Z,20.76
2018-07-24T19:48:11.087Z,20.85
2018-07-24T19:50:41.478Z,20.93
2018-07-24T19:53:12.167Z,21.00
2018-07-24T19:55:42.509Z,21.17
2018-07-24T19:58:12.895Z,21.30
2018-07-24T20:00:43.683Z,21.36
2018-07-24T20:03:14.067Z,21.47
2018-07-24T20:05:44.518Z,21.48
2018-07-24T20:08:14.807Z,21.63
2018-07-24T20:10:45.247Z,21.69
2018-07-24T20:13:16.009Z,21.67
2018-07-24T20:15:46.513Z,21.72
2018-07-24T20:18:16.773Z,21.80
2018-07-24T20:20:47.401Z,21.92
2018-07-24T20:23:18.019Z,21.95
2018-07-24T20:25:48.321Z,22.00
2018-07-24T20:28:18.727Z,22.05
2018-07-24T20:30:49.206Z,22.10
2018-07-24T20:33:19.872Z,22.13
2018-07-24T20:35:50.279Z,22.19
2018-07-24T20:38:20.696Z,22.19
2018-07-24T20:40:51.211Z,22.21
2018-07-24T20:43:21.746Z,22.24
2018-07-24T20:45:52.420Z,22.26
2018-07-24T20:48:22.782Z,22.33
2018-07-24T20:50:53.312Z,22.32
2018-07-24T20:53:24.527Z,22.33
2018-07-24T20:55:56.205Z,22.33
2018-07-24T20:58:26.490Z,22.34
2018-07-24T21:00:57.018Z,22.39
2018-07-24T21:03:27.674Z,22.41
2018-07-24T21:05:58.225Z,22.36
2018-07-24T21:08:28.932Z,22.43
2018-07-24T21:10:59.442Z,22.44
2018-07-24T21:13:29.674Z,22.40
2018-07-24T21:16:00.787Z,22.42
2018-07-24T21:18:31.248Z,22.39
2018-07-24T21:21:03.228Z,22.38
2018-07-24T21:23:33.802Z,22.23
2018-07-24T21:26:04.447Z,21.79
2018-07-24T21:28:35.009Z,21.55
2018-07-24T21:31:05.349Z,21.37
2018-07-24T21:33:35.730Z,21.29
2018-07-24T21:36:06.095Z,21.17
2018-07-24T21:38:37.593Z,21.19
2018-07-24T21:41:08.502Z,21.18
2018-07-24T21:43:39.164Z,21.24
2018-07-24T21:46:09.498Z,21.26
2018-07-24T21:48:39.837Z,21.39
2018-07-24T21:51:10.140Z,21.40
2018-07-24T21:53:40.518Z,21.43
2018-07-24T21:56:10.906Z,21.51
2018-07-24T21:58:41.395Z,21.59
2018-07-24T22:01:12.119Z,21.65
2018-07-24T22:03:43.019Z,21.70
2018-07-24T22:06:13.260Z,21.70
2018-07-24T22:08:43.599Z,21.69
2018-07-24T22:11:14.117Z,21.71
2018-07-24T22:13:44.629Z,21.72
2018-07-24T22:16:15.214Z,21.73
2018-07-24T22:18:45.613Z,21.72
2018-07-24T22:21:16.140Z,21.62
2018-07-24T22:23:46.592Z,21.59
2018-07-24T22:26:17.037Z,21.53
2018-07-24T22:28:47.783Z,21.49
2018-07-24T22:31:18.468Z,21.50
2018-07-24T22:33:48.898Z,21.47
2018-07-24T22:36:19.874Z,21.51
2018-07-24T22:38:50.331Z,21.52
2018-07-24T22:41:20.618Z,21.52
2018-07-24T22:43:51.214Z,21.49
2018-07-24T22:46:21.573Z,21.48
2018-07-24T22:48:52.085Z,21.41
2018-07-24T22:51:22.461Z,21.46
2018-07-24T22:53:52.895Z,21.42
2018-07-24T22:56:23.874Z,21.50
2018-07-24T22:58:54.670Z,21.47
2018-07-24T23:01:25.145Z,21.47
2018-07-24T23:03:55.680Z,21.42
2018-07-24T23:06:26.008Z,21.48
2018-07-24T23:08:56.430Z,21.48
2018-07-24T23:11:27.038Z,21.51
2018-07-24T23:13:57.364Z,21.59
2018-07-24T23:16:28.319Z,21.61
2018-07-24T23:18:58.729Z,21.69
2018-07-24T23:21:29.102Z,21.71
2018-07-24T23:23:59.577Z,21.78
2018-07-24T23:26:29.923Z,21.74
2018-07-24T23:29:00.252Z,21.82
2018-07-24T23:31:30.860Z,21.88
2018-07-24T23:34:01.194Z,21.89
2018-07-24T23:36:31.766Z,21.93
2018-07-24T23:39:02.195Z,21.92
2018-07-24T23:41:32.774Z,21.92
2018-07-24T23:44:03.210Z,21.90
2018-07-24T23:46:33.544Z,21.93
2018-07-24T23:49:04.403Z,21.86
2018-07-24T23:51:34.858Z,21.84
2018-07-24T23:54:05.214Z,21.89
2018-07-24T23:56:35.712Z,21.80
2018-07-24T23:59:06.302Z,21.79
